Time;durP1;ratioP1;P1;durP2;ratioP2;P2;SDS_P1;SDS_P2;PMS_P1;PMS_P2;Temp;Humidity;BMP_temperature;BMP_pressure;BME280_temperature;BME280_humidity;BME280_pressure;Samples;Min_cycle;Max_cycle;Signal;HPM_P1;HPM_P2
2022/01/04 00:01:08;;;;;;;25.60;4.60;;;8.00;99.90;;;;;;4825795;29;20430;-79
2022/01/04 00:03:34;;;;;;;22.88;4.75;;;8.00;99.90;;;;;;4826368;29;20073;-79
2022/01/04 00:06:00;;;;;;;21.40;4.50;;;8.10;99.90;;;;;;4824772;29;20370;-79
2022/01/04 00:08:27;;;;;;;21.27;4.03;;;8.10;99.90;;;;;;4824637;29;20046;-79
2022/01/04 00:11:05;;;;;;;21.45;4.88;;;8.10;99.90;;;;;;4824904;29;20053;-79
2022/01/04 00:13:30;;;;;;;25.02;4.75;;;8.20;99.90;;;;;;4826267;29;20057;-79
2022/01/04 00:15:56;;;;;;;23.95;4.95;;;8.20;99.90;;;;;;4824869;29;20050;-79
2022/01/04 00:18:22;;;;;;;23.30;4.82;;;8.30;99.90;;;;;;4824258;29;20392;-79
2022/01/04 00:20:48;;;;;;;20.77;5.03;;;8.30;99.90;;;;;;4825992;29;20050;-79
2022/01/04 00:23:14;;;;;;;21.13;4.88;;;8.30;99.90;;;;;;4824450;29;20129;-79
2022/01/04 00:25:40;;;;;;;23.40;5.72;;;8.40;99.90;;;;;;4825905;29;20046;-79
2022/01/04 00:28:07;;;;;;;25.20;5.68;;;8.30;99.90;;;;;;4825870;29;20111;-79
2022/01/04 00:30:37;;;;;;;22.85;4.78;;;8.40;99.90;;;;;;4824971;29;20807;-79
2022/01/04 00:33:03;;;;;;;26.05;5.50;;;8.50;99.90;;;;;;4824590;29;20404;-79
2022/01/04 00:35:29;;;;;;;29.60;4.93;;;8.50;99.90;;;;;;4824234;29;20514;-79
2022/01/04 00:37:55;;;;;;;26.65;5.38;;;8.40;99.90;;;;;;4824481;29;20050;-79
2022/01/04 00:40:20;;;;;;;26.38;5.35;;;8.50;99.90;;;;;;4824000;29;20054;-79
2022/01/04 00:42:46;;;;;;;20.23;4.78;;;8.50;99.90;;;;;;4825334;29;20042;-79
2022/01/04 00:45:12;;;;;;;22.85;5.13;;;8.50;99.90;;;;;;4825074;29;20046;-79
2022/01/04 00:49:09;;;;;;;25.52;5.15;;;8.50;99.90;;;;;;4825499;29;20546;-79
2022/01/04 00:50:29;;;;;;;23.05;4.65;;;8.50;99.90;;;;;;4824873;29;20053;-79
2022/01/04 00:52:55;;;;;;;20.67;4.95;;;8.50;99.90;;;;;;4825447;29;20366;-79
2022/01/04 00:55:21;;;;;;;25.35;5.50;;;8.50;99.90;;;;;;4824933;29;20138;-79
2022/01/04 00:57:47;;;;;;;21.33;5.00;;;8.50;99.90;;;;;;4824171;29;20046;-79
2022/01/04 01:00:14;;;;;;;25.02;4.95;;;8.50;99.90;;;;;;4823677;29;20051;-80
2022/01/04 01:02:39;;;;;;;23.05;4.95;;;8.50;99.90;;;;;;4809223;29;20082;-79
2022/01/04 01:05:05;;;;;;;23.75;5.15;;;8.60;99.90;;;;;;4825355;29;20081;-79
2022/01/04 01:07:31;;;;;;;23.38;4.80;;;8.50;99.90;;;;;;4808684;29;20054;-79
2022/01/04 01:10:32;;;;;;;20.33;5.38;;;8.50;99.90;;;;;;4825014;29;20039;-79
2022/01/04 01:12:54;;;;;;;25.83;5.50;;;8.50;99.90;;;;;;4824731;29;20058;-79
2022/01/04 01:15:20;;;;;;;23.45;5.13;;;8.50;99.90;;;;;;4823647;29;20049;-79
2022/01/04 01:17:46;;;;;;;26.88;5.50;;;8.50;99.90;;;;;;4824022;29;20042;-79
2022/01/04 01:20:13;;;;;;;25.40;5.28;;;8.50;99.90;;;;;;4823854;29;20058;-79
2022/01/04 01:22:39;;;;;;;25.48;5.47;;;8.50;99.90;;;;;;4823474;29;20125;-79
2022/01/04 01:25:05;;;;;;;28.90;5.50;;;8.50;99.90;;;;;;4824909;29;20152;-79
2022/01/04 01:27:31;;;;;;;29.08;5.50;;;8.50;99.90;;;;;;4822882;29;20506;-79
2022/01/04 01:29:56;;;;;;;27.15;6.10;;;8.50;99.90;;;;;;4824992;29;20088;-79
2022/01/04 01:32:22;;;;;;;27.77;5.22;;;8.50;99.90;;;;;;4824475;29;20083;-79
2022/01/04 01:34:48;;;;;;;30.50;5.72;;;8.50;99.90;;;;;;4823476;29;20046;-79
2022/01/04 01:37:13;;;;;;;27.08;5.97;;;8.50;99.90;;;;;;4824807;29;20042;-79
2022/01/04 01:39:39;;;;;;;22.40;5.70;;;8.50;99.90;;;;;;4824524;29;20046;-79
2022/01/04 01:42:05;;;;;;;27.95;6.13;;;8.50;99.90;;;;;;4824927;29;20149;-79
2022/01/04 01:44:31;;;;;;;32.78;5.80;;;8.50;99.90;;;;;;4824418;29;20042;-79
2022/01/04 01:46:58;;;;;;;20.13;5.05;;;8.50;99.90;;;;;;4823718;29;20050;-79
2022/01/04 01:49:23;;;;;;;26.80;5.85;;;8.50;99.90;;;;;;4807837;29;20133;-79
2022/01/04 01:51:49;;;;;;;30.73;5.45;;;8.50;99.90;;;;;;4824542;29;20129;-79
2022/01/04 01:54:15;;;;;;;22.65;5.65;;;8.50;99.90;;;;;;4823367;29;20103;-79
2022/01/04 01:56:40;;;;;;;19.48;4.90;;;8.50;99.90;;;;;;4824047;29;20060;-79
2022/01/04 01:59:07;;;;;;;21.83;4.90;;;8.50;99.90;;;;;;4824405;29;20043;-79
2022/01/04 02:01:32;;;;;;;32.55;5.88;;;8.50;99.90;;;;;;4822552;29;20512;-79
2022/01/04 02:03:58;;;;;;;25.58;4.95;;;8.50;99.90;;;;;;4824538;29;20038;-79
2022/01/04 02:06:24;;;;;;;21.40;5.35;;;8.50;99.90;;;;;;4823941;29;20046;-80
2022/01/04 02:08:49;;;;;;;20.83;5.35;;;8.50;99.90;;;;;;4824383;29;20117;-79
2022/01/04 02:11:15;;;;;;;23.77;4.82;;;8.60;99.90;;;;;;4823207;29;20137;-79
2022/01/04 02:13:41;;;;;;;29.05;5.90;;;8.60;99.90;;;;;;4807549;29;20061;-79
2022/01/04 02:16:10;;;;;;;19.92;4.80;;;8.50;99.90;;;;;;4824303;29;20055;-79
2022/01/04 02:18:35;;;;;;;20.02;5.30;;;8.50;99.90;;;;;;4806991;29;20089;-79
2022/01/04 02:21:01;;;;;;;26.13;5.38;;;8.50;99.90;;;;;;4823049;29;20077;-79
2022/01/04 02:23:26;;;;;;;31.60;6.35;;;8.60;99.90;;;;;;4823758;29;20089;-79
2022/01/04 02:25:52;;;;;;;20.42;5.00;;;8.60;99.90;;;;;;4824091;29;20058;-79
2022/01/04 02:28:20;;;;;;;24.25;5.05;;;8.50;99.90;;;;;;4822615;29;20432;-79
2022/01/04 02:30:47;;;;;;;23.77;5.07;;;8.50;99.90;;;;;;4822497;29;20065;-79
2022/01/04 02:33:14;;;;;;;24.25;6.00;;;8.50;99.90;;;;;;4824097;29;20085;-79
2022/01/04 02:35:39;;;;;;;29.13;5.47;;;8.50;99.90;;;;;;4823544;29;20053;-79
2022/01/04 02:38:05;;;;;;;28.67;5.95;;;8.50;99.90;;;;;;4823797;29;20382;-79
2022/01/04 02:40:31;;;;;;;31.40;6.22;;;8.50;99.90;;;;;;4822833;29;20042;-79
2022/01/04 02:42:57;;;;;;;30.17;5.93;;;8.50;99.90;;;;;;4823970;29;20053;-79
2022/01/04 02:45:23;;;;;;;20.98;4.90;;;8.50;99.90;;;;;;4822676;29;20439;-78
2022/01/04 02:47:48;;;;;;;25.83;4.93;;;8.50;99.90;;;;;;4823189;29;20050;-78
2022/01/04 02:50:14;;;;;;;18.73;5.35;;;8.50;99.90;;;;;;4823929;29;20362;-79
2022/01/04 02:52:40;;;;;;;21.95;5.20;;;8.60;99.90;;;;;;4823327;29;20046;-79
2022/01/04 02:55:07;;;;;;;26.67;5.97;;;8.50;99.90;;;;;;4822768;29;20047;-78
2022/01/04 02:57:33;;;;;;;20.70;5.57;;;8.50;99.90;;;;;;4822139;29;20098;-79
2022/01/04 02:59:59;;;;;;;24.50;5.47;;;8.50;99.90;;;;;;4823810;29;20122;-79
2022/01/04 03:02:25;;;;;;;21.50;5.47;;;8.50;99.90;;;;;;4822482;29;20050;-79
2022/01/04 03:04:50;;;;;;;19.58;5.28;;;8.50;99.90;;;;;;4823397;29;20058;-78
2022/01/04 03:07:16;;;;;;;29.67;6.20;;;8.50;99.90;;;;;;4822497;29;20069;-79
2022/01/04 03:09:41;;;;;;;27.45;6.20;;;8.50;99.90;;;;;;4823020;29;20057;-79
2022/01/04 03:12:08;;;;;;;24.52;5.78;;;8.50;99.90;;;;;;4823577;29;20061;-78
2022/01/04 03:14:34;;;;;;;20.92;6.18;;;8.50;99.90;;;;;;4823210;29;20046;-79
2022/01/04 03:17:00;;;;;;;22.08;5.45;;;8.50;99.90;;;;;;4823312;29;20107;-79
2022/01/04 03:19:25;;;;;;;30.42;6.05;;;8.50;99.90;;;;;;4823500;29;20385;-79
2022/01/04 03:21:51;;;;;;;23.23;5.63;;;8.50;99.90;;;;;;4823254;29;20302;-79
2022/01/04 03:24:17;;;;;;;20.67;5.35;;;8.50;99.90;;;;;;4822432;29;20087;-79
2022/01/04 03:26:43;;;;;;;30.33;6.03;;;8.50;99.90;;;;;;4806963;29;20046;-79
2022/01/04 03:29:09;;;;;;;26.48;6.13;;;8.40;99.90;;;;;;4822262;29;20489;-79
2022/01/04 03:31:35;;;;;;;25.42;6.82;;;8.40;99.90;;;;;;4821888;29;20075;-79
2022/01/04 03:34:01;;;;;;;24.17;6.15;;;8.50;99.90;;;;;;4823505;29;20047;-78
2022/01/04 03:36:26;;;;;;;24.42;6.53;;;8.40;99.90;;;;;;4822252;29;20081;-78
2022/01/04 03:38:52;;;;;;;31.52;7.35;;;8.50;99.90;;;;;;4822799;29;20046;-79
2022/01/04 03:41:18;;;;;;;27.80;7.55;;;8.50;99.90;;;;;;4807162;29;20054;-79
2022/01/04 03:43:44;;;;;;;24.38;6.70;;;8.50;99.90;;;;;;4822919;29;20050;-79
2022/01/04 03:46:10;;;;;;;31.08;7.40;;;8.50;99.90;;;;;;4823339;29;20392;-79
2022/01/04 03:48:35;;;;;;;22.80;7.57;;;8.50;99.90;;;;;;4822986;29;20155;-79
2022/01/04 03:51:02;;;;;;;28.40;8.02;;;8.50;99.90;;;;;;4823599;29;20272;-78
2022/01/04 03:53:27;;;;;;;26.05;8.10;;;8.50;99.90;;;;;;4825342;29;20093;-78
2022/01/04 03:55:53;;;;;;;23.88;8.40;;;8.50;99.90;;;;;;4825691;29;20446;-78
2022/01/04 03:58:19;;;;;;;28.52;8.07;;;8.50;99.90;;;;;;4826250;29;20129;-79
2022/01/04 04:00:44;;;;;;;28.67;8.65;;;8.50;99.90;;;;;;4824785;29;20096;-79
2022/01/04 04:03:10;;;;;;;32.72;9.25;;;8.50;99.90;;;;;;4826263;29;20062;-79
2022/01/04 04:05:35;;;;;;;30.65;7.80;;;8.40;99.90;;;;;;4826219;29;20054;-79
2022/01/04 04:08:01;;;;;;;25.13;8.65;;;8.50;99.90;;;;;;4825759;29;20042;-79
2022/01/04 04:10:27;;;;;;;23.20;8.40;;;8.50;99.90;;;;;;4824948;29;20042;-78
2022/01/04 04:12:52;;;;;;;28.50;8.77;;;8.50;99.90;;;;;;4824398;29;20164;-79
2022/01/04 04:15:18;;;;;;;26.20;9.25;;;8.50;99.90;;;;;;4825996;29;20086;-79
2022/01/04 04:17:46;;;;;;;24.33;9.00;;;8.50;99.90;;;;;;4825570;29;20090;-79
2022/01/04 04:20:12;;;;;;;27.10;9.20;;;8.50;99.90;;;;;;4809748;29;20132;-79
2022/01/04 04:22:38;;;;;;;25.98;9.20;;;8.50;99.90;;;;;;4825904;29;20142;-78
2022/01/04 04:25:04;;;;;;;29.92;9.48;;;8.50;99.90;;;;;;4824367;29;20380;-79
2022/01/04 04:27:30;;;;;;;31.35;9.73;;;8.50;99.90;;;;;;4824734;29;20050;-79
2022/01/04 04:29:55;;;;;;;27.58;9.57;;;8.50;99.90;;;;;;4825249;29;20494;-79
2022/01/04 04:32:21;;;;;;;27.75;11.20;;;8.50;99.90;;;;;;4824519;29;20107;-79
2022/01/04 04:34:47;;;;;;;29.27;10.00;;;8.50;99.90;;;;;;4824243;29;20042;-79
2022/01/04 04:37:12;;;;;;;26.17;9.38;;;8.50;99.90;;;;;;4825614;29;20042;-79
2022/01/04 04:39:38;;;;;;;25.58;10.35;;;8.50;99.90;;;;;;4825711;29;20069;-78
2022/01/04 04:42:04;;;;;;;28.50;10.32;;;8.50;99.90;;;;;;4808966;29;20075;-79
2022/01/04 04:44:30;;;;;;;39.72;11.23;;;8.40;99.90;;;;;;4825744;29;20429;-79
2022/01/04 04:46:56;;;;;;;28.17;10.10;;;8.40;99.90;;;;;;4825401;29;20138;-79
2022/01/04 04:49:21;;;;;;;30.60;10.77;;;8.40;99.90;;;;;;4825606;29;20062;-79
2022/01/04 04:51:47;;;;;;;30.55;10.82;;;8.40;99.90;;;;;;4825042;29;20385;-79
2022/01/04 04:54:13;;;;;;;33.90;11.00;;;8.40;99.90;;;;;;4825637;29;20425;-79
2022/01/04 04:56:38;;;;;;;31.77;10.52;;;8.50;99.90;;;;;;4825364;29;20132;-79
2022/01/04 04:59:08;;;;;;;29.58;11.07;;;8.40;99.90;;;;;;4823859;29;20145;-79
2022/01/04 05:01:33;;;;;;;31.75;11.23;;;8.50;99.90;;;;;;4823715;29;20046;-79
2022/01/04 05:03:59;;;;;;;30.95;10.77;;;8.40;99.90;;;;;;4824608;29;20388;-79
2022/01/04 05:06:25;;;;;;;29.60;10.30;;;8.50;99.90;;;;;;4825263;29;20103;-79
2022/01/04 05:08:52;;;;;;;29.38;10.43;;;8.50;99.90;;;;;;4824928;29;20090;-79
2022/01/04 05:11:17;;;;;;;33.55;10.90;;;8.50;99.90;;;;;;4825192;29;20046;-79
2022/01/04 05:13:43;;;;;;;38.25;11.45;;;8.40;99.90;;;;;;4825128;29;20046;-79
2022/01/04 05:16:09;;;;;;;31.42;10.25;;;8.50;99.90;;;;;;4824529;29;20381;-79
2022/01/04 05:18:34;;;;;;;26.30;9.70;;;8.50;99.90;;;;;;4825029;29;20078;-79
2022/01/04 05:21:00;;;;;;;29.08;10.75;;;8.50;99.90;;;;;;4823510;29;20038;-79
2022/01/04 05:23:26;;;;;;;31.50;10.43;;;8.50;99.90;;;;;;4825107;29;20046;-79
2022/01/04 05:25:51;;;;;;;27.15;10.65;;;8.50;99.90;;;;;;4824477;29;20137;-79
2022/01/04 05:28:17;;;;;;;27.55;9.88;;;8.50;99.90;;;;;;4825023;29;20042;-79
2022/01/04 05:30:43;;;;;;;33.72;10.48;;;8.40;99.90;;;;;;4825005;29;20358;-79
2022/01/04 05:33:08;;;;;;;31.00;9.55;;;8.50;99.90;;;;;;4823036;29;20058;-79
2022/01/04 05:35:34;;;;;;;30.80;10.20;;;8.40;99.90;;;;;;4824891;29;20114;-78
2022/01/04 05:37:59;;;;;;;28.85;9.80;;;8.50;99.90;;;;;;4824361;29;20385;-78
2022/01/04 05:40:25;;;;;;;33.35;9.80;;;8.40;99.90;;;;;;4823514;29;20050;-78
2022/01/04 05:42:51;;;;;;;30.42;9.52;;;8.40;99.90;;;;;;4824059;29;20054;-77
2022/01/04 05:45:16;;;;;;;32.42;10.00;;;8.40;99.90;;;;;;4824641;29;20092;-78
2022/01/04 05:47:42;;;;;;;31.63;8.93;;;8.40;99.90;;;;;;4824095;29;20133;-80
2022/01/04 05:50:08;;;;;;;25.73;8.20;;;8.40;99.90;;;;;;4823887;29;20389;-80
2022/01/04 05:52:34;;;;;;;28.70;9.45;;;8.40;99.90;;;;;;4823116;29;20046;-80
2022/01/04 05:54:59;;;;;;;31.02;9.38;;;8.40;99.90;;;;;;4822791;29;20050;-79
2022/01/04 05:57:25;;;;;;;28.58;9.35;;;8.40;99.90;;;;;;4823078;29;20046;-80
2022/01/04 05:59:51;;;;;;;31.27;8.80;;;8.40;99.90;;;;;;4824268;29;20081;-81
2022/01/04 06:02:16;;;;;;;28.35;8.55;;;8.30;99.90;;;;;;4823497;29;20414;-81
2022/01/04 06:04:42;;;;;;;25.02;9.50;;;8.30;99.90;;;;;;4822608;29;20053;-82
2022/01/04 06:07:08;;;;;;;34.72;10.60;;;8.40;99.90;;;;;;4823517;29;20046;-78
2022/01/04 06:09:46;;;;;;;33.13;12.15;;;8.40;99.90;;;;;;4824107;29;20462;-78
2022/01/04 06:14:58;;;;;;;38.97;11.07;;;8.40;99.90;;;;;;4823695;29;20052;-79
2022/01/04 06:17:28;;;;;;;32.30;10.88;;;8.40;99.90;;;;;;4824064;29;20058;-78
2022/01/04 06:19:57;;;;;;;28.88;10.30;;;8.40;99.90;;;;;;4823728;29;20051;-78
2022/01/04 06:22:23;;;;;;;32.05;11.15;;;8.40;99.90;;;;;;4824085;29;20050;-78
2022/01/04 06:24:48;;;;;;;30.13;11.15;;;8.40;99.90;;;;;;4823086;29;20042;-78
2022/01/04 06:27:14;;;;;;;35.92;11.55;;;8.50;99.90;;;;;;4823948;29;20046;-78
2022/01/04 06:29:40;;;;;;;36.10;11.30;;;8.40;99.90;;;;;;4824134;29;20043;-78
2022/01/04 06:32:07;;;;;;;34.20;11.80;;;8.40;99.90;;;;;;4807080;29;20051;-78
2022/01/04 06:34:33;;;;;;;32.83;11.93;;;8.40;99.90;;;;;;4822627;29;20552;-78
2022/01/04 06:36:59;;;;;;;21.67;9.82;;;8.40;99.90;;;;;;4822162;29;20515;-78
2022/01/04 06:39:24;;;;;;;30.80;10.25;;;8.40;99.90;;;;;;4823997;29;20038;-78
2022/01/04 06:41:50;;;;;;;26.23;9.13;;;8.40;99.90;;;;;;4824089;29;20050;-78
2022/01/04 06:44:16;;;;;;;20.50;8.82;;;8.40;99.90;;;;;;4823861;29;20046;-78
2022/01/04 06:46:45;;;;;;;21.08;8.00;;;8.40;99.90;;;;;;4822589;29;20384;-78
2022/01/04 06:49:14;;;;;;;23.13;7.70;;;8.30;99.90;;;;;;4823353;29;20132;-78
2022/01/04 06:51:40;;;;;;;20.48;7.53;;;8.30;99.90;;;;;;4823908;29;20378;-78
2022/01/04 06:54:07;;;;;;;18.05;6.78;;;8.30;99.90;;;;;;4822288;29;20067;-78
2022/01/04 06:56:33;;;;;;;19.08;6.10;;;8.40;99.90;;;;;;4823842;29;20046;-78
2022/01/04 06:58:58;;;;;;;20.10;5.43;;;8.30;99.90;;;;;;4823720;29;20388;-78
2022/01/04 07:01:24;;;;;;;16.90;5.63;;;8.30;99.90;;;;;;4823215;29;20049;-78
2022/01/04 07:03:49;;;;;;;20.55;6.00;;;8.30;99.90;;;;;;4823691;29;20049;-78
2022/01/04 07:06:15;;;;;;;22.35;6.00;;;8.30;99.90;;;;;;4823324;29;20038;-78
2022/01/04 07:08:41;;;;;;;19.40;6.10;;;8.30;99.90;;;;;;4822556;29;20436;-78
2022/01/04 07:11:06;;;;;;;21.92;6.57;;;8.30;99.90;;;;;;4823297;29;20069;-78
2022/01/04 07:13:32;;;;;;;21.42;5.78;;;8.30;99.90;;;;;;4807349;29;20469;-78
2022/01/04 07:15:57;;;;;;;19.13;6.00;;;8.20;99.90;;;;;;4822397;29;20127;-78
2022/01/04 07:18:23;;;;;;;18.23;6.18;;;8.20;99.90;;;;;;4822775;29;20038;-78
2022/01/04 07:20:49;;;;;;;19.13;5.80;;;8.20;99.90;;;;;;4823123;29;20393;-78
2022/01/04 07:23:14;;;;;;;18.98;6.13;;;8.20;99.90;;;;;;4822267;29;20085;-78
2022/01/04 07:25:40;;;;;;;19.10;6.68;;;8.20;99.90;;;;;;4824784;29;20046;-78
2022/01/04 07:28:06;;;;;;;15.80;6.38;;;8.20;99.90;;;;;;4825510;29;20046;-78
2022/01/04 07:30:31;;;;;;;18.88;6.82;;;8.20;99.90;;;;;;4826819;29;20495;-78
2022/01/04 07:32:57;;;;;;;20.88;7.30;;;8.20;99.90;;;;;;4825732;29;20389;-78
2022/01/04 07:35:23;;;;;;;21.13;8.02;;;8.30;99.90;;;;;;4826318;29;20046;-78
2022/01/04 07:37:48;;;;;;;22.48;8.52;;;8.30;99.90;;;;;;4826905;29;20095;-79
2022/01/04 07:40:14;;;;;;;25.23;9.93;;;8.30;99.90;;;;;;4826150;29;20050;-79
2022/01/04 07:42:40;;;;;;;27.67;10.55;;;8.30;99.90;;;;;;4826412;29;20080;-79
2022/01/04 07:45:06;;;;;;;24.45;10.00;;;8.40;99.90;;;;;;4826522;29;20046;-80
2022/01/04 07:47:31;;;;;;;25.92;11.60;;;8.30;99.90;;;;;;4826345;29;20054;-79
2022/01/04 07:49:57;;;;;;;26.17;10.95;;;8.40;99.90;;;;;;4826575;29;20060;-78
2022/01/04 07:52:23;;;;;;;28.17;11.18;;;8.40;99.90;;;;;;4824940;29;20054;-79
2022/01/04 07:54:48;;;;;;;28.08;11.80;;;8.40;99.90;;;;;;4826488;29;20096;-79
2022/01/04 07:57:14;;;;;;;20.77;10.77;;;8.40;99.90;;;;;;4826012;29;20471;-79
2022/01/04 07:59:40;;;;;;;26.58;10.35;;;8.40;99.90;;;;;;4826331;29;20111;-79
2022/01/04 08:02:05;;;;;;;28.27;10.90;;;8.40;99.90;;;;;;4826288;29;20046;-79
2022/01/04 08:04:31;;;;;;;26.60;10.70;;;8.50;99.90;;;;;;4826163;29;20046;-79
2022/01/04 08:06:57;;;;;;;23.38;7.93;;;8.40;99.90;;;;;;4826329;29;20466;-79
2022/01/04 08:09:22;;;;;;;14.80;5.03;;;8.40;99.90;;;;;;4824525;29;20047;-80
2022/01/04 08:11:48;;;;;;;18.55;4.80;;;8.40;99.90;;;;;;4825971;29;20137;-80
2022/01/04 08:14:14;;;;;;;14.23;4.30;;;8.30;99.90;;;;;;4825561;29;20039;-80
2022/01/04 08:16:40;;;;;;;8.93;3.75;;;8.20;99.90;;;;;;4826143;29;20042;-79
2022/01/04 08:19:05;;;;;;;8.00;3.08;;;8.10;99.90;;;;;;4809916;29;20046;-80
2022/01/04 08:21:31;;;;;;;11.07;3.00;;;8.10;99.90;;;;;;4825495;29;20175;-80
2022/01/04 08:23:56;;;;;;;8.93;2.90;;;8.00;99.90;;;;;;4826004;29;20046;-80
2022/01/04 08:26:22;;;;;;;7.45;2.35;;;8.00;99.90;;;;;;4825555;29;20442;-80
2022/01/04 08:28:48;;;;;;;5.15;1.80;;;8.00;99.90;;;;;;4825881;29;20038;-79
2022/01/04 08:31:13;;;;;;;6.63;2.00;;;7.90;99.90;;;;;;4825284;29;20398;-80
2022/01/04 08:33:39;;;;;;;7.65;1.65;;;7.90;99.90;;;;;;4825915;29;20054;-79
2022/01/04 08:36:07;;;;;;;5.20;1.52;;;7.80;99.90;;;;;;4825277;29;20129;-79
2022/01/04 08:38:33;;;;;;;7.57;1.98;;;7.80;99.90;;;;;;4823160;29;20058;-79
2022/01/04 08:40:58;;;;;;;10.15;2.50;;;7.90;99.90;;;;;;4825800;29;20049;-80
2022/01/04 08:43:26;;;;;;;8.95;2.90;;;7.80;99.90;;;;;;4824292;29;20423;-80
2022/01/04 08:45:52;;;;;;;8.38;2.88;;;7.80;99.90;;;;;;4825671;29;20118;-80
2022/01/04 08:48:17;;;;;;;9.15;3.08;;;7.80;99.90;;;;;;4824028;29;20058;-80
2022/01/04 08:50:44;;;;;;;13.75;3.20;;;7.80;99.90;;;;;;4824721;29;20054;-79
2022/01/04 08:53:11;;;;;;;8.77;3.70;;;7.80;99.90;;;;;;4824427;29;20061;-79
2022/01/04 08:55:38;;;;;;;10.55;4.00;;;7.80;99.90;;;;;;4824044;29;20052;-79
2022/01/04 08:58:04;;;;;;;11.13;4.03;;;7.80;99.90;;;;;;4825389;29;20046;-79
2022/01/04 09:00:29;;;;;;;9.85;3.83;;;7.80;99.90;;;;;;4824932;29;20389;-79
2022/01/04 09:02:55;;;;;;;11.93;3.75;;;7.80;99.90;;;;;;4825027;29;20075;-79
2022/01/04 09:05:21;;;;;;;9.63;4.18;;;7.80;99.90;;;;;;4824813;29;20050;-79
2022/01/04 09:07:46;;;;;;;9.70;2.95;;;7.80;99.90;;;;;;4825277;29;20042;-80
2022/01/04 09:10:12;;;;;;;8.85;3.45;;;7.90;99.90;;;;;;4825203;29;20048;-79
2022/01/04 09:13:05;;;;;;;13.70;3.30;;;7.90;99.90;;;;;;4824767;29;20042;-79
2022/01/04 09:15:33;;;;;;;10.77;3.25;;;7.90;99.90;;;;;;4823171;29;20133;-79
2022/01/04 09:20:46;;;;;;;9.43;2.45;;;7.90;99.90;;;;;;4825409;29;20051;-79
2022/01/04 09:23:18;;;;;;;7.03;1.63;;;7.90;99.90;;;;;;4825055;29;20366;-79
2022/01/04 09:25:45;;;;;;;6.18;1.60;;;7.90;99.90;;;;;;4824953;29;20500;-79
2022/01/04 09:28:10;;;;;;;8.73;1.70;;;7.90;99.90;;;;;;4823837;29;20046;-79
2022/01/04 09:30:36;;;;;;;4.57;1.10;;;7.90;99.90;;;;;;4824200;29;20058;-79
2022/01/04 09:33:02;;;;;;;6.63;1.48;;;7.90;99.90;;;;;;4824747;29;20080;-79
2022/01/04 09:35:28;;;;;;;5.65;1.10;;;7.90;99.90;;;;;;4824543;29;20074;-79
2022/01/04 09:37:54;;;;;;;6.25;1.08;;;7.80;99.90;;;;;;4824903;29;20469;-79
2022/01/04 09:40:19;;;;;;;6.60;1.35;;;7.80;99.90;;;;;;4823590;29;20053;-79
2022/01/04 09:42:46;;;;;;;4.05;1.00;;;7.80;99.90;;;;;;4824761;29;20129;-79
2022/01/04 09:45:11;;;;;;;3.42;0.85;;;7.80;99.90;;;;;;4808503;29;20050;-78
2022/01/04 09:47:37;;;;;;;5.35;0.73;;;7.80;99.90;;;;;;4824263;29;20046;-80
2022/01/04 09:50:08;;;;;;;5.78;0.70;;;7.80;99.90;;;;;;4823251;29;20046;-80
2022/01/04 09:52:34;;;;;;;3.92;0.82;;;7.80;99.90;;;;;;4824275;29;20046;-79
2022/01/04 09:55:03;;;;;;;5.65;0.90;;;7.70;99.90;;;;;;4823572;29;20042;-80
2022/01/04 09:57:28;;;;;;;5.20;1.10;;;7.70;99.90;;;;;;4823052;29;20054;-80
2022/01/04 09:59:54;;;;;;;4.00;0.63;;;7.60;99.90;;;;;;4824569;29;20431;-80
2022/01/04 10:02:20;;;;;;;3.55;0.52;;;7.60;99.90;;;;;;4824439;29;20137;-80
2022/01/04 10:04:46;;;;;;;4.57;0.88;;;7.50;99.90;;;;;;4823125;29;20083;-79
2022/01/04 10:07:11;;;;;;;4.60;0.70;;;7.50;99.90;;;;;;4824372;29;20046;-78
2022/01/04 10:09:48;;;;;;;6.75;0.95;;;7.50;99.90;;;;;;4823970;29;20373;-84
2022/01/04 10:12:15;;;;;;;5.63;0.90;;;7.50;99.90;;;;;;4824490;29;20401;-84
2022/01/04 10:14:53;;;;;;;2.95;0.70;;;7.40;99.90;;;;;;4822767;29;20079;-81
2022/01/04 10:17:25;;;;;;;6.43;0.80;;;7.40;99.90;;;;;;4824205;29;20046;-81
2022/01/04 10:19:53;;;;;;;3.88;0.60;;;7.30;99.90;;;;;;4824243;29;20057;-80
2022/01/04 10:22:27;;;;;;;5.13;0.80;;;7.30;99.90;;;;;;4823363;29;20054;-80
2022/01/04 10:25:04;;;;;;;4.22;0.95;;;7.30;99.90;;;;;;4824258;29;20050;-81
2022/01/04 10:27:31;;;;;;;6.65;1.20;;;7.30;99.90;;;;;;4823698;29;20480;-82
2022/01/04 10:30:23;;;;;;;8.10;1.10;;;7.30;99.90;;;;;;4822936;29;20465;-82
2022/01/04 10:32:51;;;;;;;4.35;1.08;;;7.20;99.90;;;;;;4823812;29;20090;-80
2022/01/04 10:35:25;;;;;;;4.50;1.13;;;7.20;99.90;;;;;;4823849;29;20496;-79
2022/01/04 10:37:51;;;;;;;4.50;0.80;;;7.10;99.90;;;;;;4823649;29;20050;-86
2022/01/04 10:40:17;;;;;;;3.72;1.00;;;7.10;99.90;;;;;;4807549;29;20378;-81
2022/01/04 10:42:42;;;;;;;3.70;0.80;;;7.00;99.90;;;;;;4821998;29;20053;-82
2022/01/04 10:45:27;;;;;;;4.63;0.95;;;7.00;99.90;;;;;;4822603;29;20102;-82
2022/01/04 10:47:53;;;;;;;2.22;0.50;;;6.90;99.90;;;;;;4822326;29;20141;-80
2022/01/04 10:50:32;;;;;;;2.55;0.70;;;6.80;99.90;;;;;;4822672;29;20450;-80
2022/01/04 10:52:58;;;;;;;5.05;0.50;;;6.80;99.90;;;;;;4807518;29;20107;-81
2022/01/04 10:55:24;;;;;;;5.35;0.60;;;6.60;99.90;;;;;;4823593;29;20504;-79
2022/01/04 10:57:50;;;;;;;2.88;0.60;;;6.50;99.90;;;;;;4823402;29;20051;-80
2022/01/04 11:00:17;;;;;;;5.25;0.70;;;6.50;99.90;;;;;;4823344;29;20078;-79
2022/01/04 11:02:42;;;;;;;2.70;0.40;;;6.50;99.90;;;;;;4825834;29;20063;-80
2022/01/04 11:05:15;;;;;;;4.35;1.20;;;6.40;99.90;;;;;;4827130;29;20046;-80
2022/01/04 11:07:57;;;;;;;4.97;0.70;;;6.50;99.90;;;;;;4826864;29;20446;-79
2022/01/04 11:10:22;;;;;;;3.83;0.70;;;6.50;99.90;;;;;;4827379;29;20038;-78
2022/01/04 11:12:48;;;;;;;5.13;1.13;;;6.60;99.90;;;;;;4825434;29;20053;-80
2022/01/04 11:15:14;;;;;;;4.95;0.57;;;6.60;99.90;;;;;;4827176;29;20160;-80
2022/01/04 11:17:40;;;;;;;3.95;0.52;;;6.60;99.90;;;;;;4826710;29;20125;-80
2022/01/04 11:20:07;;;;;;;6.07;0.73;;;6.70;99.90;;;;;;4826917;29;20046;-81
2022/01/04 11:22:32;;;;;;;4.10;0.93;;;6.60;99.90;;;;;;4826902;29;20038;-81
2022/01/04 11:24:58;;;;;;;2.30;0.60;;;6.60;99.90;;;;;;4826474;29;20057;-82
2022/01/04 11:27:24;;;;;;;4.93;1.08;;;6.60;99.90;;;;;;4810796;29;20038;-80
2022/01/04 11:29:49;;;;;;;8.43;1.15;;;6.60;99.90;;;;;;4825334;29;20054;-80
2022/01/04 11:32:16;;;;;;;2.53;0.65;;;6.50;99.90;;;;;;4810670;29;20526;-80
2022/01/04 11:35:12;;;;;;;2.78;0.60;;;6.50;99.90;;;;;;4825208;29;20050;-80
2022/01/04 11:37:41;;;;;;;4.25;0.68;;;6.40;99.90;;;;;;4812014;29;20431;-81
2022/01/04 11:40:28;;;;;;;5.20;0.73;;;6.30;99.90;;;;;;4825244;29;20046;-80
2022/01/04 11:42:54;;;;;;;5.07;0.80;;;6.30;99.90;;;;;;4826165;29;20050;-80
2022/01/04 11:45:39;;;;;;;4.75;0.60;;;6.20;99.90;;;;;;4825422;29;20058;-80
2022/01/04 11:48:23;;;;;;;7.65;0.80;;;6.30;99.90;;;;;;4826179;29;20494;-80
2022/01/04 11:50:48;;;;;;;6.72;0.70;;;6.20;99.90;;;;;;4825929;29;20409;-80
2022/01/04 11:53:14;;;;;;;5.78;1.02;;;6.20;99.90;;;;;;4826498;29;20046;-80
2022/01/04 11:55:46;;;;;;;3.53;0.77;;;6.30;99.90;;;;;;4826079;29;20081;-80
2022/01/04 11:58:17;;;;;;;6.30;1.27;;;6.20;99.90;;;;;;4825331;29;20103;-80
2022/01/04 12:00:45;;;;;;;4.57;0.50;;;6.20;99.90;;;;;;4825575;29;20481;-80
2022/01/04 12:03:15;;;;;;;5.75;0.70;;;6.30;99.90;;;;;;4826227;29;20378;-80
2022/01/04 12:05:58;;;;;;;1.85;0.65;;;6.30;99.90;;;;;;4810034;29;20431;-81
2022/01/04 12:08:24;;;;;;;5.00;0.82;;;6.40;99.90;;;;;;4826254;29;20137;-80
2022/01/04 12:10:51;;;;;;;7.35;0.88;;;6.40;99.90;;;;;;4824344;29;20442;-80
2022/01/04 12:13:20;;;;;;;3.30;0.50;;;6.50;99.90;;;;;;4824750;29;20109;-80
2022/01/04 12:15:48;;;;;;;4.10;0.63;;;6.50;99.90;;;;;;4824225;29;20054;-80
2022/01/04 12:18:23;;;;;;;2.72;0.70;;;6.60;99.90;;;;;;4824773;29;20097;-80
2022/01/04 12:20:53;;;;;;;3.50;0.65;;;6.60;99.90;;;;;;4825587;29;20050;-80
2022/01/04 12:23:22;;;;;;;;;;;6.60;99.90;;;;;;4825251;29;20046;-80
2022/01/04 12:26:03;;;;;;;10.20;0.85;;;6.60;99.90;;;;;;4825175;29;19920;-80
2022/01/04 12:28:29;;;;;;;;;;;6.70;99.90;;;;;;4825990;29;20054;-80
2022/01/04 12:31:24;;;;;;;6.32;1.08;;;6.60;99.90;;;;;;4824198;29;19924;-80
2022/01/04 12:33:53;;;;;;;5.93;0.80;;;6.80;99.90;;;;;;4824925;29;20069;-80
2022/01/04 12:36:35;;;;;;;7.00;0.90;;;6.80;99.90;;;;;;4824664;29;20053;-80
2022/01/04 12:39:05;;;;;;;4.35;0.88;;;6.80;99.90;;;;;;4824248;29;20046;-81
2022/01/04 12:41:30;;;;;;;5.93;1.33;;;6.90;99.90;;;;;;4824686;29;20139;-80
2022/01/04 12:43:56;;;;;;;7.50;0.85;;;6.90;99.90;;;;;;4824183;29;20133;-80
2022/01/04 12:46:29;;;;;;;7.78;1.00;;;6.90;99.90;;;;;;4824556;29;20046;-80
2022/01/04 12:49:04;;;;;;;6.72;0.90;;;6.90;99.90;;;;;;4825113;29;20054;-80
2022/01/04 12:51:37;;;;;;;8.00;1.00;;;6.90;99.90;;;;;;4824568;29;20393;-80
2022/01/04 12:54:10;;;;;;;5.90;0.80;;;6.90;99.90;;;;;;4824292;29;20087;-80